createdAt,value
2023-04-12T00:02:18.481Z,12.40
2023-04-12T00:07:21.316Z,13.00
2023-04-12T00:12:24.069Z,13.60
2023-04-12T00:17:28.279Z,12.60
2023-04-12T00:22:31.268Z,9.80
2023-04-12T00:27:34.057Z,12.40
2023-04-12T00:32:38.462Z,10.40
2023-04-12T00:37:41.347Z,14.60
2023-04-12T00:42:44.740Z,12.00
2023-04-12T00:47:48.906Z,10.80
2023-04-12T00:52:51.934Z,9.20
2023-04-12T00:57:54.929Z,11.60
2023-04-12T01:03:02.518Z,12.00
2023-04-12T01:08:12.031Z,11.00
2023-04-12T01:13:21.709Z,12.20
2023-04-12T01:18:28.022Z,12.20
2023-04-12T01:23:43.366Z,9.00
2023-04-12T01:28:47.605Z,10.80
2023-04-12T01:33:50.335Z,11.20
2023-04-12T01:38:53.705Z,8.60
2023-04-12T01:43:58.133Z,10.60
2023-04-12T01:49:01.218Z,9.40
2023-04-12T01:54:11.241Z,9.00
2023-04-12T01:59:16.443Z,9.00
2023-04-12T02:04:19.181Z,9.00
2023-04-12T02:09:22.601Z,9.00
2023-04-12T02:14:27.029Z,8.00
2023-04-12T02:19:30.102Z,8.60
2023-04-12T02:24:33.607Z,11.80
2023-04-12T02:29:37.753Z,8.20
2023-04-12T02:34:40.596Z,8.20
2023-04-12T02:39:51.979Z,9.00
2023-04-12T02:44:57.968Z,8.60
2023-04-12T02:50:00.887Z,8.00
2023-04-12T02:55:05.836Z,10.20
2023-04-12T03:00:13.279Z,9.00
2023-04-12T03:05:19.420Z,8.20
2023-04-12T03:10:22.376Z,6.80
2023-04-12T03:15:34.098Z,8.40
2023-04-12T03:20:39.206Z,7.40
2023-04-12T03:25:45.531Z,8.80
2023-04-12T03:31:10.557Z,9.00
2023-04-12T03:36:18.995Z,7.00
2023-04-12T03:41:27.647Z,7.00
2023-04-12T03:46:32.424Z,7.40
2023-04-12T03:51:42.655Z,9.60
2023-04-12T03:56:46.497Z,8.40
2023-04-12T04:01:58.938Z,7.40
2023-04-12T04:07:03.955Z,7.00
2023-04-12T04:12:15.024Z,8.00
2023-04-12T04:17:23.475Z,5.00
2023-04-12T04:22:26.723Z,8.00
2023-04-12T04:27:30.669Z,7.40
2023-04-12T04:32:35.552Z,5.80
2023-04-12T04:37:38.611Z,7.00
2023-04-12T04:42:42.899Z,7.00
2023-04-12T04:47:47.664Z,6.60
2023-04-12T04:52:50.893Z,5.40
2023-04-12T04:57:54.420Z,4.60
2023-04-12T05:02:58.878Z,7.00
2023-04-12T05:08:04.441Z,7.00
2023-04-12T05:13:10.681Z,7.20
2023-04-12T05:18:16.017Z,5.40
2023-04-12T05:23:18.823Z,5.40
2023-04-12T05:28:21.856Z,7.00
2023-04-12T05:33:26.579Z,7.00
2023-04-12T05:38:29.502Z,5.00
2023-04-12T05:43:37.588Z,6.60
2023-04-12T05:48:43.006Z,5.40
2023-04-12T05:53:45.803Z,7.00
2023-04-12T05:58:50.072Z,7.80
2023-04-12T06:03:54.925Z,5.00
2023-04-12T06:09:00.562Z,6.20
2023-04-12T06:14:04.517Z,7.00
2023-04-12T06:19:09.090Z,5.40
2023-04-12T06:24:11.881Z,5.00
2023-04-12T06:29:14.853Z,5.40
2023-04-12T06:34:19.539Z,5.00
2023-04-12T06:39:22.491Z,6.60
2023-04-12T06:44:26.285Z,4.40
2023-04-12T06:49:30.530Z,5.40
2023-04-12T06:54:33.269Z,4.00
2023-04-12T06:59:36.070Z,4.60
2023-04-12T07:04:40.464Z,4.00
2023-04-12T07:09:43.296Z,4.80
2023-04-12T07:14:46.034Z,4.60
2023-04-12T07:19:50.364Z,6.40
2023-04-12T07:24:53.150Z,5.80
2023-04-12T07:29:55.975Z,4.00
2023-04-12T07:35:00.428Z,2.80
2023-04-12T07:40:03.365Z,4.00
2023-04-12T07:45:06.975Z,4.00
2023-04-12T07:50:13.286Z,2.80
2023-04-12T07:55:16.156Z,2.00
2023-04-12T08:00:19.825Z,4.00
2023-04-12T08:05:24.039Z,2.80
2023-04-12T08:10:26.823Z,4.40
2023-04-12T08:15:29.719Z,2.00
2023-04-12T08:20:34.085Z,2.00
2023-04-12T08:25:36.881Z,3.20
2023-04-12T08:30:39.710Z,2.00
2023-04-12T08:35:43.807Z,4.00
2023-04-12T08:40:47.217Z,4.00
2023-04-12T08:45:50.117Z,3.20
2023-04-12T08:50:54.337Z,2.00
2023-04-12T08:55:57.088Z,4.00
2023-04-12T09:00:59.866Z,4.00
2023-04-12T09:06:05.928Z,4.00
2023-04-12T09:11:23.078Z,4.00
2023-04-12T09:16:36.019Z,5.20
2023-04-12T09:21:52.382Z,4.60
2023-04-12T09:27:03.618Z,5.00
2023-04-12T09:32:07.124Z,4.20
2023-04-12T09:37:17.750Z,5.00
2023-04-12T09:47:38.170Z,5.00
2023-04-12T09:52:42.325Z,4.00
2023-04-12T09:57:45.685Z,2.00
2023-04-12T10:02:51.236Z,4.00
2023-04-12T10:07:56.603Z,1.00
2023-04-12T10:13:00.262Z,3.20
2023-04-12T10:18:03.079Z,2.00
2023-04-12T10:23:07.351Z,2.00
2023-04-12T10:28:17.268Z,1.00
2023-04-12T10:33:20.779Z,2.00
2023-04-12T10:38:27.153Z,2.00
2023-04-12T10:43:30.134Z,2.00
2023-04-12T10:48:33.617Z,1.40
2023-04-12T10:53:37.734Z,3.60
2023-04-12T10:58:58.877Z,2.00
2023-04-12T11:04:09.311Z,3.20
2023-04-12T11:09:21.863Z,2.00
2023-04-12T11:14:28.638Z,17.80
2023-04-12T11:19:31.898Z,49.00
2023-04-12T11:24:38.551Z,72.00
2023-04-12T11:29:41.386Z,122.00
2023-04-12T11:34:46.883Z,151.50
2023-04-12T11:39:52.682Z,220.25
2023-04-12T11:45:00.289Z,309.00
2023-04-12T11:50:05.110Z,323.67
2023-04-12T11:55:11.380Z,388.00
2023-04-12T12:00:15.338Z,376.75
2023-04-12T12:05:18.372Z,390.25
2023-04-12T12:10:37.781Z,386.75
2023-04-12T12:15:46.114Z,422.60
2023-04-12T12:20:49.884Z,417.60
2023-04-12T12:26:02.970Z,340.00
2023-04-12T12:31:13.282Z,315.00
2023-04-12T12:36:19.651Z,300.50
2023-04-12T12:41:24.559Z,255.75
2023-04-12T12:46:37.386Z,251.50
2023-04-12T12:51:51.185Z,231.25
2023-04-12T12:56:55.468Z,215.75
2023-04-12T13:01:58.368Z,216.00
2023-04-12T13:07:01.294Z,215.00
2023-04-12T13:12:07.632Z,206.00
2023-04-12T13:17:11.862Z,195.00
2023-04-12T13:22:14.768Z,187.33
2023-04-12T13:27:18.969Z,188.33
2023-04-12T13:32:21.973Z,181.67
2023-04-12T13:37:25.187Z,175.67
2023-04-12T13:42:29.711Z,172.67
2023-04-12T13:47:33.746Z,174.33
2023-04-12T13:52:36.864Z,171.33
2023-04-12T13:57:41.113Z,169.67
2023-04-12T14:02:44.193Z,167.75
2023-04-12T14:07:47.966Z,161.50
2023-04-12T14:12:52.169Z,164.75
2023-04-12T14:17:56.121Z,160.00
2023-04-12T14:23:01.218Z,157.50
2023-04-12T14:28:05.657Z,152.00
2023-04-12T14:33:08.725Z,154.50
2023-04-12T14:38:12.652Z,156.75
2023-04-12T14:43:17.123Z,149.75
2023-04-12T14:48:21.092Z,142.25
2023-04-12T14:53:23.923Z,145.00
2023-04-12T14:58:29.444Z,150.75
2023-04-12T15:03:34.050Z,143.75
2023-04-12T15:08:41.635Z,150.50
2023-04-12T15:13:45.802Z,144.50
2023-04-12T15:18:50.248Z,140.50
2023-04-12T15:23:53.124Z,135.50
2023-04-12T15:28:57.240Z,146.25
2023-04-12T15:34:00.457Z,141.25
2023-04-12T15:39:04.652Z,137.00
2023-04-12T15:44:09.849Z,137.50
2023-04-12T15:49:12.764Z,143.25
2023-04-12T15:54:16.142Z,139.00
2023-04-12T15:59:20.320Z,140.25
2023-04-12T16:04:23.193Z,136.75
2023-04-12T16:09:26.424Z,142.50
2023-04-12T16:14:30.814Z,131.75
2023-04-12T16:19:33.563Z,130.00
2023-04-12T16:24:37.366Z,132.50
2023-04-12T16:29:41.573Z,123.00
2023-04-12T16:34:44.572Z,132.00
2023-04-12T16:39:47.613Z,132.25
2023-04-12T16:44:52.050Z,128.25
2023-04-12T16:49:54.888Z,124.50
2023-04-12T16:54:58.386Z,123.50
2023-04-12T17:00:04.349Z,122.25
2023-04-12T17:05:08.417Z,119.00
2023-04-12T17:10:11.360Z,119.75
2023-04-12T17:15:16.385Z,115.50
2023-04-12T17:20:19.880Z,109.75
2023-04-12T17:25:22.944Z,107.50
2023-04-12T17:30:30.929Z,106.00
2023-04-12T17:35:33.963Z,101.25
2023-04-12T17:40:37.586Z,97.50
2023-04-12T17:45:41.911Z,99.00
2023-04-12T17:50:45.723Z,99.50
2023-04-12T17:55:50.594Z,97.25
2023-04-12T18:00:54.987Z,100.00
2023-04-12T18:05:59.296Z,94.75
2023-04-12T18:11:03.965Z,94.75
2023-04-12T18:16:08.422Z,96.00
2023-04-12T18:21:11.386Z,98.25
2023-04-12T18:26:14.240Z,98.00
2023-04-12T18:31:18.921Z,89.25
2023-04-12T18:36:21.924Z,96.25
2023-04-12T18:41:24.983Z,88.00
2023-04-12T18:46:29.632Z,86.50
2023-04-12T18:51:33.812Z,89.75
2023-04-12T18:56:36.641Z,90.50
2023-04-12T19:01:41.045Z,82.50
2023-04-12T19:06:45.101Z,86.50
2023-04-12T19:11:47.999Z,84.00
2023-04-12T19:16:52.992Z,77.50
2023-04-12T19:21:55.901Z,76.25
2023-04-12T19:26:58.703Z,80.00
2023-04-12T19:32:05.366Z,76.75
2023-04-12T19:37:08.278Z,80.00
2023-04-12T19:42:11.851Z,72.75
2023-04-12T19:47:16.085Z,79.50
2023-04-12T19:52:21.785Z,76.50
2023-04-12T19:57:25.060Z,77.50
2023-04-12T20:02:29.421Z,75.25
2023-04-12T20:07:32.331Z,77.75
2023-04-12T20:12:35.266Z,72.75
2023-04-12T20:17:41.167Z,71.25
2023-04-12T20:22:45.828Z,75.00
2023-04-12T20:27:52.430Z,70.25
2023-04-12T20:32:57.207Z,70.50
2023-04-12T20:38:00.290Z,76.25
2023-04-12T20:43:03.446Z,71.00
2023-04-12T20:48:07.685Z,70.50
2023-04-12T20:53:15.033Z,68.75
2023-04-12T20:58:19.063Z,66.50
2023-04-12T21:03:23.265Z,68.75
2023-04-12T21:08:26.122Z,66.25
2023-04-12T21:13:28.973Z,67.25
2023-04-12T21:18:34.208Z,68.50
2023-04-12T21:23:37.543Z,68.25
2023-04-12T21:28:40.944Z,65.00
2023-04-12T21:33:45.058Z,64.25
2023-04-12T21:38:49.100Z,63.50
2023-04-12T21:43:52.122Z,64.75
2023-04-12T21:48:56.406Z,65.25
2023-04-12T21:53:59.293Z,62.50
2023-04-12T21:59:02.485Z,63.00
2023-04-12T22:04:07.776Z,63.25
2023-04-12T22:09:10.605Z,64.00
2023-04-12T22:14:13.755Z,62.00
2023-04-12T22:19:18.784Z,64.00
2023-04-12T22:24:21.538Z,59.67
2023-04-12T22:29:25.368Z,59.33
2023-04-12T22:34:29.578Z,63.00
2023-04-12T22:39:32.522Z,59.00
2023-04-12T22:44:38.211Z,59.00
2023-04-12T22:49:50.185Z,59.00
2023-04-12T22:54:53.049Z,56.33
2023-04-12T22:59:55.814Z,56.33
2023-04-12T23:05:00.026Z,53.33
2023-04-12T23:10:03.108Z,53.33
2023-04-12T23:15:06.668Z,52.33
2023-04-12T23:20:13.302Z,54.33
2023-04-12T23:25:16.419Z,54.00
2023-04-12T23:30:20.151Z,54.67
2023-04-12T23:35:24.306Z,53.67
2023-04-12T23:40:27.140Z,54.00
2023-04-12T23:45:29.896Z,53.33
2023-04-12T23:50:34.005Z,51.67
2023-04-12T23:55:36.885Z,52.00
